Time;durP1;ratioP1;P1;durP2;ratioP2;P2;SDS_P1;SDS_P2;PMS_P1;PMS_P2;Temp;Humidity;BMP_temperature;BMP_pressure;BME280_temperature;BME280_humidity;BME280_pressure;Samples;Min_cycle;Max_cycle;Signal;HPM_P1;HPM_P2
2021/08/31 00:01:06;;;;;;;24.50;12.53;;;16.40;99.90;;;;;;5065123;28;20299;-66
2021/08/31 00:03:35;;;;;;;29.70;13.33;;;16.30;99.90;;;;;;5084473;28;20218;-66
2021/08/31 00:06:03;;;;;;;23.93;12.73;;;16.30;99.90;;;;;;5092097;28;20588;-66
2021/08/31 00:08:31;;;;;;;21.97;12.27;;;16.30;99.90;;;;;;5086710;28;20550;-66
2021/08/31 00:11:00;;;;;;;23.10;12.73;;;16.30;99.90;;;;;;5092515;28;20248;-67
2021/08/31 00:13:28;;;;;;;25.00;12.80;;;16.40;99.90;;;;;;5086146;28;20196;-66
2021/08/31 00:15:56;;;;;;;25.77;12.33;;;16.30;99.90;;;;;;5090483;28;20199;-66
2021/08/31 00:18:26;;;;;;;21.47;12.30;;;16.30;99.90;;;;;;5090335;28;20697;-66
2021/08/31 00:20:54;;;;;;;30.17;13.13;;;16.30;99.90;;;;;;5086471;28;20527;-67
2021/08/31 00:23:23;;;;;;;21.30;13.03;;;16.20;99.90;;;;;;5087800;28;20199;-66
2021/08/31 00:25:53;;;;;;;26.60;12.30;;;16.20;99.90;;;;;;5094054;28;20201;-67
2021/08/31 00:28:21;;;;;;;26.33;12.20;;;16.20;99.90;;;;;;5088832;28;20207;-66
2021/08/31 00:30:49;;;;;;;23.90;12.90;;;16.20;99.90;;;;;;5085571;28;20192;-66
2021/08/31 00:33:19;;;;;;;20.50;12.03;;;16.10;99.90;;;;;;5088181;28;20184;-66
2021/08/31 00:35:49;;;;;;;23.63;11.83;;;16.10;99.90;;;;;;5085202;28;20229;-67
2021/08/31 00:38:17;;;;;;;22.80;12.70;;;16.00;99.90;;;;;;5087627;28;20580;-66
2021/08/31 00:40:46;;;;;;;28.57;12.40;;;16.00;99.90;;;;;;5083556;28;20219;-66
2021/08/31 00:43:18;;;;;;;23.47;11.90;;;15.90;99.90;;;;;;5087151;28;20769;-66
2021/08/31 00:45:48;;;;;;;23.20;12.80;;;15.90;99.90;;;;;;5088637;28;20185;-66
2021/08/31 00:48:18;;;;;;;19.70;12.73;;;15.80;99.90;;;;;;5089024;28;20187;-66
2021/08/31 00:50:51;;;;;;;23.40;12.63;;;15.80;99.90;;;;;;5089070;28;20676;-67
2021/08/31 00:53:19;;;;;;;24.23;13.20;;;15.70;99.90;;;;;;5087259;28;20782;-66
2021/08/31 00:55:48;;;;;;;22.67;12.60;;;15.80;99.90;;;;;;5089896;28;20211;-66
2021/08/31 00:58:17;;;;;;;26.97;12.93;;;15.80;99.90;;;;;;5091090;28;20195;-67
2021/08/31 01:00:45;;;;;;;24.40;12.10;;;15.80;99.90;;;;;;5065264;28;20314;-66
2021/08/31 01:03:14;;;;;;;21.27;11.83;;;15.80;99.90;;;;;;5086404;28;20284;-66
2021/08/31 01:05:42;;;;;;;19.77;11.97;;;15.80;99.90;;;;;;5088606;28;20720;-67
2021/08/31 01:08:12;;;;;;;21.67;12.17;;;15.90;99.90;;;;;;5088195;28;20227;-66
2021/08/31 01:10:40;;;;;;;25.23;11.87;;;15.90;99.90;;;;;;5087762;28;20674;-66
2021/08/31 01:13:09;;;;;;;21.60;11.67;;;15.90;99.90;;;;;;5082194;28;20539;-66
2021/08/31 01:15:38;;;;;;;22.53;12.30;;;15.90;99.90;;;;;;5085649;28;20196;-67
2021/08/31 01:18:15;;;;;;;21.83;12.00;;;15.90;99.90;;;;;;5089039;28;20219;-66
2021/08/31 01:20:43;;;;;;;21.07;11.50;;;15.90;99.90;;;;;;5088517;28;20248;-66
2021/08/31 01:23:16;;;;;;;20.40;11.57;;;15.90;99.90;;;;;;5091389;28;20274;-66
2021/08/31 01:25:48;;;;;;;25.03;11.23;;;15.80;99.90;;;;;;5087834;28;20218;-66
2021/08/31 01:28:19;;;;;;;24.37;12.43;;;15.80;99.90;;;;;;5086007;28;20188;-67
2021/08/31 01:30:49;;;;;;;19.80;11.13;;;15.80;99.90;;;;;;5088161;28;20187;-66
2021/08/31 01:33:18;;;;;;;24.07;11.47;;;15.80;99.90;;;;;;5067780;28;20666;-67
2021/08/31 01:35:46;;;;;;;23.43;11.67;;;15.70;99.90;;;;;;5087555;28;20659;-66
2021/08/31 01:38:15;;;;;;;24.57;12.13;;;15.80;99.90;;;;;;5086477;28;20216;-66
2021/08/31 01:40:43;;;;;;;22.70;11.93;;;15.70;99.90;;;;;;5063818;28;20245;-66
2021/08/31 01:43:21;;;;;;;21.77;11.37;;;15.70;99.90;;;;;;5071693;28;20195;-66
2021/08/31 01:45:50;;;;;;;26.53;12.20;;;15.60;99.90;;;;;;5083283;28;20234;-66
2021/08/31 01:48:18;;;;;;;17.97;11.47;;;15.60;99.90;;;;;;5081772;28;20187;-67
2021/08/31 01:50:46;;;;;;;20.13;11.70;;;15.60;99.90;;;;;;5083568;28;20246;-66
2021/08/31 01:53:15;;;;;;;19.90;11.90;;;15.50;99.90;;;;;;5084454;28;20745;-66
2021/08/31 01:55:43;;;;;;;21.03;12.23;;;15.50;99.90;;;;;;5091360;28;21312;-66
2021/08/31 01:58:13;;;;;;;24.47;13.20;;;15.50;99.90;;;;;;5082010;28;20249;-66
2021/08/31 02:00:41;;;;;;;25.07;13.13;;;15.50;99.90;;;;;;5086105;28;20589;-66
2021/08/31 02:03:10;;;;;;;23.77;13.47;;;15.50;99.90;;;;;;5086928;28;20531;-66
2021/08/31 02:05:41;;;;;;;26.10;13.47;;;15.50;99.90;;;;;;5088745;28;20192;-66
2021/08/31 02:08:09;;;;;;;22.43;13.00;;;15.50;99.90;;;;;;5081247;28;20318;-66
2021/08/31 02:10:37;;;;;;;26.57;13.73;;;15.50;99.90;;;;;;5090157;28;20223;-67
2021/08/31 02:13:06;;;;;;;26.83;13.40;;;15.40;99.90;;;;;;5087906;28;20602;-66
2021/08/31 02:15:45;;;;;;;21.20;13.23;;;15.40;99.90;;;;;;5086884;28;20199;-66
2021/08/31 02:18:13;;;;;;;20.80;13.37;;;15.40;99.90;;;;;;5089632;28;20281;-66
2021/08/31 02:20:42;;;;;;;27.23;14.73;;;15.40;99.90;;;;;;5078046;28;20237;-66
2021/08/31 02:23:10;;;;;;;23.60;12.70;;;15.50;99.90;;;;;;5086859;28;20278;-66
2021/08/31 02:25:38;;;;;;;21.20;13.27;;;15.50;99.90;;;;;;5084404;28;20226;-66
2021/08/31 02:28:06;;;;;;;29.07;13.67;;;15.50;99.90;;;;;;5082915;28;20185;-67
2021/08/31 02:30:35;;;;;;;29.87;14.53;;;15.50;99.90;;;;;;5085918;28;20191;-66
2021/08/31 02:33:04;;;;;;;23.47;13.40;;;15.50;99.90;;;;;;5087347;28;20253;-65
2021/08/31 02:35:33;;;;;;;24.23;13.90;;;15.50;99.90;;;;;;5085415;28;20674;-67
2021/08/31 02:38:02;;;;;;;22.40;14.27;;;15.40;99.90;;;;;;5085394;28;20218;-67
2021/08/31 02:40:30;;;;;;;24.30;14.03;;;15.50;99.90;;;;;;5065744;28;20247;-66
2021/08/31 02:42:59;;;;;;;21.43;13.57;;;15.50;99.90;;;;;;5083904;28;20628;-66
2021/08/31 02:45:27;;;;;;;31.40;14.03;;;15.50;99.90;;;;;;5084130;28;20604;-66
2021/08/31 02:47:55;;;;;;;25.37;14.67;;;15.50;99.90;;;;;;5091658;28;20234;-66
2021/08/31 02:50:25;;;;;;;26.67;15.50;;;15.50;99.90;;;;;;5066185;28;20637;-67
2021/08/31 02:52:54;;;;;;;26.87;14.17;;;15.50;99.90;;;;;;5071446;28;20658;-66
2021/08/31 02:55:22;;;;;;;27.83;16.53;;;15.50;99.90;;;;;;5083720;28;20676;-66
2021/08/31 02:57:50;;;;;;;29.60;15.70;;;15.50;99.90;;;;;;5088468;28;20662;-67
2021/08/31 03:00:19;;;;;;;25.97;16.47;;;15.50;99.90;;;;;;5085088;28;20205;-66
2021/08/31 03:02:48;;;;;;;34.30;16.60;;;15.50;99.90;;;;;;5085836;28;20200;-66
2021/08/31 03:05:17;;;;;;;29.60;16.33;;;15.50;99.90;;;;;;5084340;28;20534;-66
2021/08/31 03:07:46;;;;;;;28.10;16.27;;;15.50;99.90;;;;;;5084078;28;20266;-66
2021/08/31 03:10:15;;;;;;;33.40;17.33;;;15.50;99.90;;;;;;5085212;28;20222;-66
2021/08/31 03:12:43;;;;;;;30.97;16.87;;;15.50;99.90;;;;;;5085269;28;20198;-67
2021/08/31 03:15:11;;;;;;;30.17;17.40;;;15.50;99.90;;;;;;5080821;28;20291;-66
2021/08/31 03:17:43;;;;;;;30.67;17.47;;;15.50;99.90;;;;;;5066494;28;20200;-66
2021/08/31 03:21:02;;;;;;;23.67;16.00;;;15.50;99.90;;;;;;5081852;28;20248;-67
2021/08/31 03:23:32;;;;;;;28.63;16.40;;;15.50;99.90;;;;;;5075023;28;20199;-66
2021/08/31 03:26:00;;;;;;;33.40;17.57;;;15.50;99.90;;;;;;5085865;28;20231;-66
2021/08/31 03:28:28;;;;;;;29.33;16.87;;;15.50;99.90;;;;;;5083999;28;20196;-66
2021/08/31 03:30:57;;;;;;;30.90;17.20;;;15.50;99.90;;;;;;5064769;28;20283;-66
2021/08/31 03:33:25;;;;;;;30.97;17.30;;;15.50;99.90;;;;;;5086040;28;20261;-66
2021/08/31 03:35:53;;;;;;;33.63;18.37;;;15.50;99.90;;;;;;5067655;28;20531;-66
2021/08/31 03:38:22;;;;;;;35.97;19.73;;;15.50;99.90;;;;;;5084236;28;20655;-66
2021/08/31 03:40:51;;;;;;;32.10;19.17;;;15.50;99.90;;;;;;5084238;28;20219;-66
2021/08/31 03:43:20;;;;;;;35.93;18.07;;;15.50;99.90;;;;;;5080122;28;20919;-66
2021/08/31 03:45:48;;;;;;;30.23;18.17;;;15.50;99.90;;;;;;5085091;28;20285;-67
2021/08/31 03:48:17;;;;;;;30.50;19.17;;;15.50;99.90;;;;;;5083758;28;20184;-66
2021/08/31 03:50:46;;;;;;;34.27;20.73;;;15.50;99.90;;;;;;5083277;28;20269;-66
2021/08/31 03:53:14;;;;;;;35.80;20.43;;;15.50;99.90;;;;;;5079688;28;20195;-66
2021/08/31 03:55:43;;;;;;;34.07;19.43;;;15.50;99.90;;;;;;5077500;28;20287;-67
2021/08/31 03:58:12;;;;;;;39.93;20.17;;;15.50;99.90;;;;;;5086900;28;20230;-66
2021/08/31 04:00:40;;;;;;;34.80;20.10;;;15.50;99.90;;;;;;5079761;28;20244;-66
2021/08/31 04:03:09;;;;;;;37.37;20.80;;;15.50;99.90;;;;;;5083361;28;20219;-66
2021/08/31 04:05:37;;;;;;;40.00;22.97;;;15.50;99.90;;;;;;5050163;28;20216;-66
2021/08/31 04:08:06;;;;;;;40.67;20.97;;;15.50;99.90;;;;;;5087956;28;20228;-66
2021/08/31 04:10:35;;;;;;;34.87;20.63;;;15.50;99.90;;;;;;5077182;28;20216;-66
2021/08/31 04:13:06;;;;;;;35.00;21.10;;;15.50;99.90;;;;;;5069818;28;20245;-67
2021/08/31 04:15:36;;;;;;;36.87;21.27;;;15.50;99.90;;;;;;5067150;28;20221;-66
2021/08/31 04:18:05;;;;;;;36.57;20.43;;;15.50;99.90;;;;;;5086667;28;20224;-66
2021/08/31 04:20:33;;;;;;;39.90;21.90;;;15.50;99.90;;;;;;5078629;28;20739;-66
2021/08/31 04:23:01;;;;;;;31.00;19.83;;;15.40;99.90;;;;;;5079423;28;20755;-66
2021/08/31 04:25:29;;;;;;;38.57;22.13;;;15.50;99.90;;;;;;5079438;28;20284;-66
2021/08/31 04:27:58;;;;;;;42.07;22.53;;;15.50;99.90;;;;;;5080890;28;20184;-66
2021/08/31 04:30:29;;;;;;;39.40;22.07;;;15.50;99.90;;;;;;5076065;28;20273;-66
2021/08/31 04:32:59;;;;;;;38.53;21.67;;;15.50;99.90;;;;;;5069067;28;20226;-66
2021/08/31 04:35:28;;;;;;;39.87;22.60;;;15.50;99.90;;;;;;5083679;28;20210;-66
2021/08/31 04:37:56;;;;;;;37.70;23.50;;;15.50;99.90;;;;;;5089768;28;20626;-66
2021/08/31 04:40:25;;;;;;;39.33;22.33;;;15.50;99.90;;;;;;5067209;28;20276;-66
2021/08/31 04:42:53;;;;;;;32.03;21.27;;;15.50;99.90;;;;;;5049752;28;20273;-66
2021/08/31 04:45:21;;;;;;;40.17;22.23;;;15.50;99.90;;;;;;5081080;28;20634;-66
2021/08/31 04:47:49;;;;;;;34.63;21.80;;;15.50;99.90;;;;;;5088742;28;20198;-66
2021/08/31 04:50:19;;;;;;;39.63;23.03;;;15.50;99.90;;;;;;5085255;28;20218;-66
2021/08/31 04:52:48;;;;;;;34.70;21.50;;;15.50;99.90;;;;;;5089432;28;20280;-67
2021/08/31 04:55:16;;;;;;;40.10;23.07;;;15.50;99.90;;;;;;5084324;28;20219;-66
2021/08/31 04:57:44;;;;;;;41.17;21.90;;;15.50;99.90;;;;;;5082606;28;20227;-66
2021/08/31 05:00:13;;;;;;;41.13;22.67;;;15.50;99.90;;;;;;5096081;28;20225;-66
2021/08/31 05:02:42;;;;;;;37.43;21.70;;;15.50;99.90;;;;;;5089675;28;20681;-66
2021/08/31 05:05:11;;;;;;;36.40;22.13;;;15.50;99.90;;;;;;5086821;28;20200;-66
2021/08/31 05:07:40;;;;;;;35.13;21.30;;;15.60;99.90;;;;;;5087163;28;20263;-66
2021/08/31 05:10:09;;;;;;;37.07;21.67;;;15.60;99.90;;;;;;5085847;28;20656;-66
2021/08/31 05:12:38;;;;;;;44.67;23.23;;;15.60;99.90;;;;;;5088347;28;20610;-66
2021/08/31 05:15:08;;;;;;;35.57;21.83;;;15.60;99.90;;;;;;5087834;28;20246;-66
2021/08/31 05:17:37;;;;;;;38.87;22.07;;;15.60;99.90;;;;;;5087039;28;20282;-66
2021/08/31 05:20:07;;;;;;;38.37;22.27;;;15.60;99.90;;;;;;5085923;28;20431;-65
2021/08/31 05:22:35;;;;;;;36.57;21.13;;;15.60;99.90;;;;;;5085717;28;20607;-66
2021/08/31 05:25:06;;;;;;;36.00;20.80;;;15.60;99.90;;;;;;5083898;28;20224;-66
2021/08/31 05:27:37;;;;;;;38.07;22.43;;;15.70;99.90;;;;;;5084791;28;20231;-66
2021/08/31 05:30:06;;;;;;;36.63;21.43;;;15.70;99.90;;;;;;5080368;28;20295;-66
2021/08/31 05:32:35;;;;;;;34.13;20.70;;;15.70;99.90;;;;;;5069762;28;20290;-67
2021/08/31 05:35:04;;;;;;;37.37;22.10;;;15.70;99.90;;;;;;5087379;28;20253;-66
2021/08/31 05:37:32;;;;;;;33.07;21.43;;;15.70;99.90;;;;;;5086044;28;20223;-66
2021/08/31 05:40:00;;;;;;;43.40;22.07;;;15.70;99.90;;;;;;5069739;28;20313;-67
2021/08/31 05:42:30;;;;;;;40.07;23.37;;;15.70;99.90;;;;;;5081626;28;20809;-66
2021/08/31 05:44:59;;;;;;;41.13;22.33;;;15.70;99.90;;;;;;5086590;28;20701;-66
2021/08/31 05:47:27;;;;;;;45.23;23.93;;;15.70;99.90;;;;;;5086360;28;20278;-66
2021/08/31 05:49:55;;;;;;;45.33;24.27;;;15.80;99.90;;;;;;5084358;28;20251;-66
2021/08/31 05:52:24;;;;;;;42.63;25.00;;;15.80;99.90;;;;;;5063150;28;20192;-66
2021/08/31 05:54:54;;;;;;;43.07;23.73;;;15.80;99.90;;;;;;5071797;28;20230;-66
2021/08/31 05:57:22;;;;;;;39.47;23.77;;;15.80;99.90;;;;;;5084835;28;20215;-67
2021/08/31 05:59:54;;;;;;;37.73;22.83;;;15.80;99.90;;;;;;5086985;28;20654;-67
2021/08/31 06:02:22;;;;;;;44.47;25.23;;;15.90;99.90;;;;;;5081908;28;20216;-66
2021/08/31 06:04:51;;;;;;;42.37;23.97;;;15.90;99.90;;;;;;5086914;28;20663;-67
2021/08/31 06:07:20;;;;;;;40.83;24.17;;;15.90;99.90;;;;;;5084973;28;20786;-66
2021/08/31 06:09:49;;;;;;;37.23;22.53;;;15.90;99.90;;;;;;5084590;28;20248;-66
2021/08/31 06:12:17;;;;;;;43.00;24.13;;;15.90;99.90;;;;;;5091532;28;20726;-67
2021/08/31 06:14:45;;;;;;;39.77;21.80;;;15.90;99.90;;;;;;5086566;28;20219;-66
2021/08/31 06:17:18;;;;;;;38.60;22.07;;;16.00;99.90;;;;;;5085537;28;20740;-66
2021/08/31 06:19:47;;;;;;;35.60;22.03;;;16.00;99.90;;;;;;5084178;28;20200;-66
2021/08/31 06:22:15;;;;;;;36.33;23.13;;;16.00;99.90;;;;;;5087570;28;20222;-66
2021/08/31 06:24:44;;;;;;;36.87;21.83;;;16.10;99.90;;;;;;5088450;28;20260;-66
2021/08/31 06:27:13;;;;;;;37.93;22.87;;;16.10;99.90;;;;;;5084569;28;20187;-66
2021/08/31 06:29:41;;;;;;;40.43;23.13;;;16.10;99.90;;;;;;5086623;28;20223;-67
2021/08/31 06:32:10;;;;;;;39.10;23.00;;;16.20;99.90;;;;;;5084655;28;20947;-66
2021/08/31 06:34:39;;;;;;;35.10;22.13;;;16.20;99.90;;;;;;5085937;28;20546;-67
2021/08/31 06:37:08;;;;;;;40.00;23.37;;;16.20;99.90;;;;;;5066536;28;20290;-66
2021/08/31 06:39:36;;;;;;;38.70;22.23;;;16.30;99.90;;;;;;5085289;28;20211;-66
2021/08/31 06:42:05;;;;;;;39.90;23.50;;;16.30;99.90;;;;;;5084878;28;20225;-67
2021/08/31 06:44:33;;;;;;;41.80;23.90;;;16.40;99.90;;;;;;5086023;28;20238;-66
2021/08/31 06:47:01;;;;;;;42.87;24.57;;;16.40;99.90;;;;;;5086184;28;20191;-67
2021/08/31 06:49:30;;;;;;;40.87;23.33;;;16.50;99.90;;;;;;5082554;28;20221;-66
2021/08/31 06:52:00;;;;;;;37.63;23.50;;;16.50;99.90;;;;;;5066505;28;20214;-67
2021/08/31 06:54:28;;;;;;;40.17;24.43;;;16.50;99.90;;;;;;5083277;28;20196;-67
2021/08/31 06:56:56;;;;;;;43.30;24.53;;;16.50;99.90;;;;;;5084704;28;20305;-66
2021/08/31 06:59:25;;;;;;;43.43;25.67;;;16.50;99.90;;;;;;5082215;28;20189;-67
2021/08/31 07:01:54;;;;;;;40.07;25.80;;;16.60;99.90;;;;;;5085765;28;20192;-66
2021/08/31 07:04:23;;;;;;;42.73;25.77;;;16.60;99.90;;;;;;5079235;28;20694;-67
2021/08/31 07:06:52;;;;;;;44.43;26.33;;;16.60;99.90;;;;;;5085701;28;20318;-67
2021/08/31 07:09:21;;;;;;;47.30;26.53;;;16.70;99.90;;;;;;5067361;28;20280;-67
2021/08/31 07:11:50;;;;;;;44.57;27.17;;;16.80;99.90;;;;;;5084225;28;20280;-67
2021/08/31 07:14:18;;;;;;;41.77;25.67;;;16.80;99.90;;;;;;5083685;28;20194;-67
2021/08/31 07:16:46;;;;;;;44.37;25.03;;;16.90;99.90;;;;;;5087468;28;20219;-67
2021/08/31 07:19:17;;;;;;;38.57;23.00;;;16.90;99.90;;;;;;5083612;28;20199;-66
2021/08/31 07:21:45;;;;;;;35.07;21.30;;;17.00;99.90;;;;;;5082169;28;20231;-67
2021/08/31 07:24:14;;;;;;;36.57;21.40;;;17.10;99.90;;;;;;5081386;28;20215;-66
2021/08/31 07:26:43;;;;;;;32.40;20.20;;;17.20;99.90;;;;;;5081394;28;20225;-67
2021/08/31 07:29:12;;;;;;;28.37;19.33;;;17.30;99.90;;;;;;5080656;28;20223;-66
2021/08/31 07:31:40;;;;;;;35.23;20.30;;;17.30;99.90;;;;;;5086087;28;20607;-67
2021/08/31 07:34:09;;;;;;;33.03;19.10;;;17.40;99.90;;;;;;5091069;28;20241;-66
2021/08/31 07:36:37;;;;;;;30.80;20.07;;;17.40;99.90;;;;;;5083899;28;20565;-67
2021/08/31 07:39:05;;;;;;;29.27;18.97;;;17.40;99.90;;;;;;5089400;28;20190;-66
2021/08/31 07:41:34;;;;;;;41.00;23.33;;;17.50;99.90;;;;;;5078142;28;20191;-66
2021/08/31 07:44:04;;;;;;;33.30;24.37;;;17.60;99.90;;;;;;5091827;28;20207;-67
2021/08/31 07:46:33;;;;;;;40.97;26.20;;;17.70;99.90;;;;;;5087139;28;20442;-66
2021/08/31 07:49:01;;;;;;;39.03;25.27;;;17.60;99.90;;;;;;5086309;28;20672;-67
2021/08/31 07:51:29;;;;;;;39.77;23.40;;;17.70;99.90;;;;;;5084661;28;20248;-67
2021/08/31 07:53:58;;;;;;;40.67;26.70;;;17.70;99.90;;;;;;5085360;28;20244;-66
2021/08/31 07:56:26;;;;;;;40.47;25.73;;;17.80;99.90;;;;;;5076935;28;20195;-67
2021/08/31 07:58:54;;;;;;;36.23;23.43;;;17.80;99.90;;;;;;5085278;28;20222;-66
2021/08/31 08:01:24;;;;;;;36.20;24.70;;;17.80;99.90;;;;;;5086236;28;20651;-66
2021/08/31 08:03:52;;;;;;;37.67;24.80;;;17.80;99.90;;;;;;5085718;28;20308;-67
2021/08/31 08:06:21;;;;;;;38.87;24.17;;;17.80;99.90;;;;;;5068523;28;20203;-66
2021/08/31 08:08:50;;;;;;;34.27;23.07;;;17.80;99.90;;;;;;5085621;28;20832;-66
2021/08/31 08:11:18;;;;;;;34.53;22.83;;;17.70;99.90;;;;;;5086625;28;20203;-66
2021/08/31 08:13:47;;;;;;;35.37;22.77;;;17.70;99.90;;;;;;5084974;28;20270;-67
2021/08/31 08:16:15;;;;;;;38.33;23.73;;;17.60;99.90;;;;;;5086263;28;20323;-66
2021/08/31 08:18:44;;;;;;;37.07;23.27;;;17.40;99.90;;;;;;5072743;28;20188;-66
2021/08/31 08:21:13;;;;;;;33.30;21.20;;;17.50;99.90;;;;;;5082922;28;20213;-67
2021/08/31 08:23:41;;;;;;;31.27;20.27;;;17.50;99.90;;;;;;5082478;28;20367;-66
2021/08/31 08:26:10;;;;;;;23.43;16.73;;;17.70;99.90;;;;;;5087043;28;20229;-67
2021/08/31 08:28:39;;;;;;;24.33;17.10;;;17.70;99.90;;;;;;5084734;28;20244;-67
2021/08/31 08:31:07;;;;;;;22.93;16.00;;;17.80;99.90;;;;;;5090601;28;20662;-67
2021/08/31 08:33:36;;;;;;;23.17;16.50;;;17.80;99.90;;;;;;5071472;28;20261;-67
2021/08/31 08:36:08;;;;;;;26.50;19.07;;;17.70;99.90;;;;;;5087455;28;20200;-66
2021/08/31 08:38:36;;;;;;;31.20;21.73;;;17.70;99.90;;;;;;5086556;28;20195;-66
2021/08/31 08:41:06;;;;;;;38.40;24.90;;;17.70;99.90;;;;;;5086386;28;20227;-66
2021/08/31 08:43:36;;;;;;;35.13;21.37;;;17.70;99.90;;;;;;5087764;28;20191;-67
2021/08/31 08:46:06;;;;;;;27.67;19.07;;;17.80;99.90;;;;;;5091697;28;20203;-67
2021/08/31 08:48:35;;;;;;;26.10;17.20;;;17.90;99.90;;;;;;5089328;28;20218;-66
2021/08/31 08:51:06;;;;;;;25.97;17.70;;;17.90;99.90;;;;;;5088810;28;20724;-67
2021/08/31 08:53:36;;;;;;;23.53;17.23;;;18.10;99.90;;;;;;5082568;28;20223;-66
2021/08/31 08:56:05;;;;;;;23.10;16.57;;;18.30;99.90;;;;;;5068612;28;20710;-66
2021/08/31 08:58:33;;;;;;;24.60;17.03;;;18.40;99.90;;;;;;5088387;28;20227;-67
2021/08/31 09:01:04;;;;;;;20.57;14.97;;;18.50;99.90;;;;;;5096170;28;20668;-67
2021/08/31 09:03:37;;;;;;;20.63;16.00;;;18.70;99.90;;;;;;5088459;28;20195;-67
2021/08/31 09:06:11;;;;;;;19.77;15.27;;;18.80;99.90;;;;;;5087472;28;20324;-66
2021/08/31 09:08:43;;;;;;;21.00;15.17;;;18.90;99.90;;;;;;5085838;28;20188;-67
2021/08/31 09:11:19;;;;;;;25.23;16.00;;;19.10;99.90;;;;;;5085814;28;20277;-67
2021/08/31 09:13:48;;;;;;;24.30;15.83;;;19.20;99.90;;;;;;5091277;28;20197;-67
2021/08/31 09:16:29;;;;;;;25.97;18.50;;;19.40;99.90;;;;;;5085139;28;20191;-66
2021/08/31 09:19:00;;;;;;;20.83;16.43;;;19.50;99.90;;;;;;5070691;28;20282;-67
2021/08/31 09:21:31;;;;;;;21.80;16.80;;;19.40;99.90;;;;;;5069734;28;20199;-66
2021/08/31 09:24:00;;;;;;;21.27;16.03;;;19.40;99.90;;;;;;5087246;28;20281;-67
2021/08/31 09:26:34;;;;;;;20.27;15.57;;;19.30;99.90;;;;;;5084683;28;20265;-66
2021/08/31 09:29:15;;;;;;;25.43;16.07;;;19.30;99.90;;;;;;5088285;28;20195;-67
2021/08/31 09:31:55;;;;;;;22.43;15.43;;;19.30;99.90;;;;;;5086154;28;20191;-66
2021/08/31 09:34:38;;;;;;;21.63;16.10;;;19.30;99.90;;;;;;5082574;28;20646;-66
2021/08/31 09:37:27;;;;;;;30.00;16.77;;;19.20;99.90;;;;;;5085415;28;20191;-66
2021/08/31 09:40:11;;;;;;;19.47;13.10;;;19.10;99.90;;;;;;5088856;28;20607;-67
2021/08/31 09:42:54;;;;;;;20.97;12.37;;;19.10;99.90;;;;;;5086817;28;20184;-66
2021/08/31 09:45:25;;;;;;;18.80;12.80;;;19.00;99.90;;;;;;5088767;28;20260;-67
2021/08/31 09:47:54;;;;;;;18.47;11.93;;;19.00;99.90;;;;;;5087015;28;20673;-66
2021/08/31 09:50:35;;;;;;;28.47;16.70;;;19.10;99.90;;;;;;5088908;28;20188;-66
2021/08/31 09:53:12;;;;;;;20.47;12.03;;;19.10;99.90;;;;;;5088385;28;20226;-67
2021/08/31 09:55:41;;;;;;;23.13;14.17;;;19.10;99.90;;;;;;5086010;28;20196;-66
2021/08/31 09:58:16;;;;;;;19.90;12.90;;;19.10;99.90;;;;;;5086924;28;20199;-67
2021/08/31 10:00:46;;;;;;;16.37;12.57;;;19.20;99.90;;;;;;5069712;28;20198;-67
2021/08/31 10:03:16;;;;;;;25.20;12.93;;;19.30;99.90;;;;;;5085923;28;20645;-66
2021/08/31 10:05:47;;;;;;;19.20;12.47;;;19.40;99.90;;;;;;5086104;28;20208;-67
2021/08/31 10:08:18;;;;;;;20.13;12.57;;;19.50;99.90;;;;;;5068534;28;20255;-67
2021/08/31 10:10:52;;;;;;;16.30;11.00;;;19.90;99.90;;;;;;5067478;28;20751;-67
2021/08/31 10:13:24;;;;;;;14.77;11.10;;;20.30;99.90;;;;;;5084685;28;20581;-67
2021/08/31 10:16:09;;;;;;;17.63;9.77;;;20.80;99.90;;;;;;5070448;28;20192;-66
2021/08/31 10:18:57;;;;;;;13.07;9.07;;;21.20;99.90;;;;;;5052212;28;20192;-66
2021/08/31 10:21:44;;;;;;;11.23;7.70;;;21.50;99.90;;;;;;5056105;28;20688;-67
2021/08/31 10:24:14;;;;;;;15.30;8.33;;;21.60;99.90;;;;;;5071768;28;20198;-67
2021/08/31 10:26:44;;;;;;;12.80;7.13;;;21.80;99.90;;;;;;5084755;28;20727;-67
2021/08/31 10:29:28;;;;;;;8.00;5.50;;;21.90;99.90;;;;;;5086333;28;20597;-66
2021/08/31 10:32:00;;;;;;;11.20;6.67;;;22.00;99.90;;;;;;5086085;28;20612;-67
2021/08/31 10:34:41;;;;;;;8.20;5.73;;;22.20;99.90;;;;;;5087807;28;20254;-67
2021/08/31 10:37:15;;;;;;;7.27;5.83;;;22.30;99.90;;;;;;5081517;28;20735;-67
2021/08/31 10:39:50;;;;;;;5.90;5.30;;;22.30;99.90;;;;;;5083219;28;20188;-67
2021/08/31 10:42:41;;;;;;;8.73;5.60;;;21.80;99.90;;;;;;5068428;28;20727;-67
2021/08/31 10:45:28;;;;;;;8.40;5.70;;;21.40;99.90;;;;;;5087929;28;20800;-67
2021/08/31 10:47:58;;;;;;;7.87;5.60;;;21.40;99.90;;;;;;5086767;28;20245;-66
2021/08/31 10:50:28;;;;;;;8.17;5.57;;;21.70;99.90;;;;;;5086605;28;20193;-67
2021/08/31 10:53:07;;;;;;;9.27;5.87;;;22.10;99.90;;;;;;5078875;28;20206;-67
2021/08/31 10:55:46;;;;;;;9.03;5.90;;;22.10;99.90;;;;;;5085017;28;20688;-67
2021/08/31 10:58:36;;;;;;;8.90;5.90;;;22.10;99.90;;;;;;5091247;28;20654;-66
2021/08/31 11:01:14;;;;;;;9.93;6.13;;;22.10;99.90;;;;;;5090296;28;20189;-67
2021/08/31 11:03:44;;;;;;;9.27;6.00;;;22.30;99.90;;;;;;5087180;28;20192;-67
2021/08/31 11:06:34;;;;;;;8.53;5.83;;;22.60;99.90;;;;;;5086817;28;20263;-66
2021/08/31 11:09:13;;;;;;;5.87;5.23;;;22.60;99.90;;;;;;5090731;28;20186;-66
2021/08/31 11:11:45;;;;;;;8.10;5.63;;;22.20;99.90;;;;;;5083096;28;20223;-67
2021/08/31 11:14:15;;;;;;;7.23;5.27;;;22.00;99.90;;;;;;5069360;28;20284;-67
2021/08/31 11:16:47;;;;;;;8.53;4.93;;;22.00;99.90;;;;;;5071593;28;20204;-66
2021/08/31 11:19:27;;;;;;;7.87;5.63;;;22.00;99.90;;;;;;5085161;28;20297;-66
2021/08/31 11:21:57;;;;;;;10.03;5.93;;;21.80;99.90;;;;;;5089580;28;21017;-66
2021/08/31 11:24:26;;;;;;;6.30;5.47;;;21.60;99.90;;;;;;5068413;28;20200;-66
2021/08/31 11:27:00;;;;;;;7.83;5.20;;;21.70;99.90;;;;;;5086953;28;20282;-67
2021/08/31 11:29:31;;;;;;;9.50;5.40;;;22.10;99.90;;;;;;5086852;28;20188;-67
2021/08/31 11:32:01;;;;;;;7.70;5.37;;;22.60;99.90;;;;;;5086367;28;20313;-67
2021/08/31 11:34:34;;;;;;;7.40;5.40;;;22.80;99.90;;;;;;5087456;28;20190;-66
2021/08/31 11:37:05;;;;;;;9.03;5.90;;;22.60;99.90;;;;;;5086497;28;20640;-66
2021/08/31 11:39:35;;;;;;;9.23;5.40;;;22.40;99.90;;;;;;5081578;28;20254;-67
2021/08/31 11:42:13;;;;;;;9.03;5.80;;;22.10;99.90;;;;;;5084505;28;20194;-67
2021/08/31 11:44:56;;;;;;;10.03;6.00;;;22.00;99.90;;;;;;5085703;28;20200;-66
2021/08/31 11:47:27;;;;;;;8.50;6.07;;;21.90;99.90;;;;;;5065059;28;20217;-67
2021/08/31 11:50:00;;;;;;;10.53;5.93;;;21.80;99.90;;;;;;5086873;28;20189;-66
2021/08/31 11:52:28;;;;;;;8.20;6.20;;;21.70;99.90;;;;;;5083946;28;20192;-67
2021/08/31 11:54:58;;;;;;;9.50;5.73;;;21.70;99.90;;;;;;5081956;28;20222;-66
2021/08/31 11:57:32;;;;;;;9.47;5.50;;;21.80;99.90;;;;;;5082499;28;20195;-66
2021/08/31 12:00:00;;;;;;;7.67;5.93;;;22.10;99.90;;;;;;5085330;28;20306;-67
2021/08/31 12:02:30;;;;;;;7.40;6.30;;;22.40;99.90;;;;;;5091224;28;20192;-66
2021/08/31 12:05:06;;;;;;;9.30;5.90;;;22.80;99.90;;;;;;5091427;28;21419;-67
2021/08/31 12:07:37;;;;;;;8.90;6.33;;;23.20;99.90;;;;;;5092916;28;20247;-67
2021/08/31 12:10:09;;;;;;;7.17;5.60;;;23.60;99.90;;;;;;5090438;28;20189;-66
2021/08/31 12:12:42;;;;;;;13.83;5.60;;;24.00;99.90;;;;;;5088649;28;20253;-67
2021/08/31 12:15:12;;;;;;;11.20;5.93;;;24.30;99.90;;;;;;5085442;28;20199;-66
2021/08/31 12:17:43;;;;;;;8.37;5.57;;;24.70;99.90;;;;;;5089107;28;20318;-66
2021/08/31 12:20:13;;;;;;;7.03;5.77;;;24.30;99.90;;;;;;5072304;28;20724;-66
2021/08/31 12:22:44;;;;;;;7.17;6.30;;;23.50;99.90;;;;;;5092935;28;20575;-67
2021/08/31 12:25:14;;;;;;;8.00;6.70;;;22.90;99.90;;;;;;5093681;28;21787;-66
2021/08/31 12:27:45;;;;;;;9.20;6.37;;;22.50;99.90;;;;;;5090741;28;20629;-66
2021/08/31 12:30:16;;;;;;;8.20;6.40;;;22.30;99.90;;;;;;5087581;28;20191;-66
2021/08/31 12:32:53;;;;;;;8.53;6.43;;;22.10;99.90;;;;;;5087091;28;20238;-66
2021/08/31 12:35:26;;;;;;;8.43;6.20;;;22.10;99.90;;;;;;5083207;28;20252;-66
2021/08/31 12:38:16;;;;;;;7.50;5.83;;;22.40;99.90;;;;;;5072402;28;20188;-66
2021/08/31 12:41:03;;;;;;;7.40;6.00;;;22.80;99.90;;;;;;5088663;28;20254;-67
2021/08/31 12:43:45;;;;;;;8.33;6.17;;;23.30;99.90;;;;;;5095430;28;20245;-66
2021/08/31 12:46:21;;;;;;;8.27;5.70;;;23.70;99.90;;;;;;5092244;28;20215;-67
2021/08/31 12:48:50;;;;;;;8.87;5.83;;;24.00;99.90;;;;;;5092507;28;20205;-66